sensor_id;sensor_type;location;lat;lon;timestamp;temperature;humidity
4699;DHT22;33708;49.466;11.176;2022-08-05T00:00:29;23.10;1.00
4699;DHT22;33708;49.466;11.176;2022-08-05T00:02:55;23.10;1.00
4699;DHT22;33708;49.466;11.176;2022-08-05T00:05:21;23.10;1.00
4699;DHT22;33708;49.466;11.176;2022-08-05T00:07:47;23.10;1.00
4699;DHT22;33708;49.466;11.176;2022-08-05T00:10:13;23.10;1.00
4699;DHT22;33708;49.466;11.176;2022-08-05T00:12:38;23.00;1.00
4699;DHT22;33708;49.466;11.176;2022-08-05T00:15:04;23.00;1.00
4699;DHT22;33708;49.466;11.176;2022-08-05T00:17:30;23.00;1.00
4699;DHT22;33708;49.466;11.176;2022-08-05T00:19:56;23.00;1.00
4699;DHT22;33708;49.466;11.176;2022-08-05T00:22:21;23.00;1.00
4699;DHT22;33708;49.466;11.176;2022-08-05T00:24:47;23.00;1.00
4699;DHT22;33708;49.466;11.176;2022-08-05T00:27:13;22.90;1.00
4699;DHT22;33708;49.466;11.176;2022-08-05T00:29:38;22.90;1.00
4699;DHT22;33708;49.466;11.176;2022-08-05T00:32:04;22.80;1.00
4699;DHT22;33708;49.466;11.176;2022-08-05T00:34:31;22.80;1.00
4699;DHT22;33708;49.466;11.176;2022-08-05T00:36:56;22.70;1.00
4699;DHT22;33708;49.466;11.176;2022-08-05T00:39:22;22.70;1.00
4699;DHT22;33708;49.466;11.176;2022-08-05T00:41:47;22.70;1.00
4699;DHT22;33708;49.466;11.176;2022-08-05T00:44:13;22.70;1.00
4699;DHT22;33708;49.466;11.176;2022-08-05T00:46:39;22.70;1.00
4699;DHT22;33708;49.466;11.176;2022-08-05T00:49:05;22.60;1.00
4699;DHT22;33708;49.466;11.176;2022-08-05T00:51:30;22.60;1.00
4699;DHT22;33708;49.466;11.176;2022-08-05T00:53:56;22.60;1.00
4699;DHT22;33708;49.466;11.176;2022-08-05T00:56:22;22.50;1.00
4699;DHT22;33708;49.466;11.176;2022-08-05T00:58:47;22.40;1.00
4699;DHT22;33708;49.466;11.176;2022-08-05T01:01:13;22.30;1.00
4699;DHT22;33708;49.466;11.176;2022-08-05T01:03:42;22.20;1.00
4699;DHT22;33708;49.466;11.176;2022-08-05T01:06:08;22.10;1.00
4699;DHT22;33708;49.466;11.176;2022-08-05T01:08:35;22.00;1.00
4699;DHT22;33708;49.466;11.176;2022-08-05T01:11:05;21.90;1.00
4699;DHT22;33708;49.466;11.176;2022-08-05T01:13:40;21.90;1.00
4699;DHT22;33708;49.466;11.176;2022-08-05T01:16:13;21.90;1.00
4699;DHT22;33708;49.466;11.176;2022-08-05T01:18:46;22.00;1.00
4699;DHT22;33708;49.466;11.176;2022-08-05T01:24:51;22.00;1.00
4699;DHT22;33708;49.466;11.176;2022-08-05T01:29:59;21.90;1.00
4699;DHT22;33708;49.466;11.176;2022-08-05T01:32:30;21.80;1.00
4699;DHT22;33708;49.466;11.176;2022-08-05T01:35:02;21.70;1.00
4699;DHT22;33708;49.466;11.176;2022-08-05T01:37:54;21.70;1.00
4699;DHT22;33708;49.466;11.176;2022-08-05T01:40:26;21.60;1.00
4699;DHT22;33708;49.466;11.176;2022-08-05T01:42:54;21.50;1.00
4699;DHT22;33708;49.466;11.176;2022-08-05T01:45:22;21.50;1.00
4699;DHT22;33708;49.466;11.176;2022-08-05T01:47:49;21.50;1.00
4699;DHT22;33708;49.466;11.176;2022-08-05T01:50:41;21.50;1.00
4699;DHT22;33708;49.466;11.176;2022-08-05T01:53:11;21.30;1.00
4699;DHT22;33708;49.466;11.176;2022-08-05T01:55:38;21.40;1.00
4699;DHT22;33708;49.466;11.176;2022-08-05T01:58:06;21.30;1.00
4699;DHT22;33708;49.466;11.176;2022-08-05T02:00:36;21.20;1.00
4699;DHT22;33708;49.466;11.176;2022-08-05T02:05:42;21.30;1.00
4699;DHT22;33708;49.466;11.176;2022-08-05T02:08:09;21.20;1.00
4699;DHT22;33708;49.466;11.176;2022-08-05T02:10:48;21.10;1.00
4699;DHT22;33708;49.466;11.176;2022-08-05T02:13:19;21.20;1.00
4699;DHT22;33708;49.466;11.176;2022-08-05T02:15:54;21.00;1.00
4699;DHT22;33708;49.466;11.176;2022-08-05T02:18:28;21.10;1.00
4699;DHT22;33708;49.466;11.176;2022-08-05T02:21:21;21.00;1.00
4699;DHT22;33708;49.466;11.176;2022-08-05T02:23:52;21.00;1.00
4699;DHT22;33708;49.466;11.176;2022-08-05T02:26:44;21.00;1.00
4699;DHT22;33708;49.466;11.176;2022-08-05T02:29:12;20.90;1.00
4699;DHT22;33708;49.466;11.176;2022-08-05T02:31:42;20.90;1.00
4699;DHT22;33708;49.466;11.176;2022-08-05T02:34:09;20.90;1.00
4699;DHT22;33708;49.466;11.176;2022-08-05T02:36:43;20.90;1.00
4699;DHT22;33708;49.466;11.176;2022-08-05T02:39:10;21.00;1.00
4699;DHT22;33708;49.466;11.176;2022-08-05T02:41:38;20.90;1.00
4699;DHT22;33708;49.466;11.176;2022-08-05T02:44:08;21.00;1.00
4699;DHT22;33708;49.466;11.176;2022-08-05T02:46:35;21.00;1.00
4699;DHT22;33708;49.466;11.176;2022-08-05T02:49:01;21.00;1.00
4699;DHT22;33708;49.466;11.176;2022-08-05T02:51:28;20.90;1.00
4699;DHT22;33708;49.466;11.176;2022-08-05T02:53:54;20.90;1.00
4699;DHT22;33708;49.466;11.176;2022-08-05T02:56:21;20.80;1.00
4699;DHT22;33708;49.466;11.176;2022-08-05T02:58:48;20.90;1.00
4699;DHT22;33708;49.466;11.176;2022-08-05T03:01:22;21.00;1.00
4699;DHT22;33708;49.466;11.176;2022-08-05T03:03:52;20.80;1.00
4699;DHT22;33708;49.466;11.176;2022-08-05T03:06:20;20.80;1.00
4699;DHT22;33708;49.466;11.176;2022-08-05T03:08:46;20.90;1.00
4699;DHT22;33708;49.466;11.176;2022-08-05T03:11:21;20.70;1.00
4699;DHT22;33708;49.466;11.176;2022-08-05T03:13:47;20.70;1.00
4699;DHT22;33708;49.466;11.176;2022-08-05T03:16:14;20.70;1.00
4699;DHT22;33708;49.466;11.176;2022-08-05T03:18:39;20.80;1.00
4699;DHT22;33708;49.466;11.176;2022-08-05T03:21:05;20.90;1.00
4699;DHT22;33708;49.466;11.176;2022-08-05T03:23:32;20.80;1.00
4699;DHT22;33708;49.466;11.176;2022-08-05T03:25:59;20.80;1.00
4699;DHT22;33708;49.466;11.176;2022-08-05T03:28:26;20.80;1.00
4699;DHT22;33708;49.466;11.176;2022-08-05T03:30:53;20.90;1.00
4699;DHT22;33708;49.466;11.176;2022-08-05T03:33:19;21.00;1.00
4699;DHT22;33708;49.466;11.176;2022-08-05T03:35:45;21.10;1.00
4699;DHT22;33708;49.466;11.176;2022-08-05T03:38:12;21.10;1.00
4699;DHT22;33708;49.466;11.176;2022-08-05T03:40:39;21.30;1.00
4699;DHT22;33708;49.466;11.176;2022-08-05T03:43:05;21.50;1.00
4699;DHT22;33708;49.466;11.176;2022-08-05T03:45:31;21.50;1.00
4699;DHT22;33708;49.466;11.176;2022-08-05T03:47:56;21.60;1.00
4699;DHT22;33708;49.466;11.176;2022-08-05T03:50:22;21.60;1.00
4699;DHT22;33708;49.466;11.176;2022-08-05T03:52:55;21.70;1.00
4699;DHT22;33708;49.466;11.176;2022-08-05T03:55:28;21.60;1.00
4699;DHT22;33708;49.466;11.176;2022-08-05T03:57:57;21.70;1.00
4699;DHT22;33708;49.466;11.176;2022-08-05T04:00:24;21.60;1.00
4699;DHT22;33708;49.466;11.176;2022-08-05T04:02:54;21.60;1.00
4699;DHT22;33708;49.466;11.176;2022-08-05T04:05:22;21.60;1.00
4699;DHT22;33708;49.466;11.176;2022-08-05T04:07:49;21.60;1.00
4699;DHT22;33708;49.466;11.176;2022-08-05T04:10:16;21.80;1.00
4699;DHT22;33708;49.466;11.176;2022-08-05T04:12:43;21.70;1.00
4699;DHT22;33708;49.466;11.176;2022-08-05T04:15:09;21.90;1.00
4699;DHT22;33708;49.466;11.176;2022-08-05T04:17:35;22.30;1.00
4699;DHT22;33708;49.466;11.176;2022-08-05T04:20:01;22.80;1.00
4699;DHT22;33708;49.466;11.176;2022-08-05T04:22:27;23.10;1.00
4699;DHT22;33708;49.466;11.176;2022-08-05T04:24:53;24.30;1.00
4699;DHT22;33708;49.466;11.176;2022-08-05T04:27:19;24.10;1.00
4699;DHT22;33708;49.466;11.176;2022-08-05T04:29:44;25.10;1.00
4699;DHT22;33708;49.466;11.176;2022-08-05T04:32:10;25.90;1.00
4699;DHT22;33708;49.466;11.176;2022-08-05T04:34:36;25.70;1.00
4699;DHT22;33708;49.466;11.176;2022-08-05T04:37:02;25.90;1.00
4699;DHT22;33708;49.466;11.176;2022-08-05T04:39:28;24.80;1.00
4699;DHT22;33708;49.466;11.176;2022-08-05T04:41:54;26.20;1.00
4699;DHT22;33708;49.466;11.176;2022-08-05T04:44:19;27.10;1.00
4699;DHT22;33708;49.466;11.176;2022-08-05T04:46:45;28.60;1.00
4699;DHT22;33708;49.466;11.176;2022-08-05T04:49:11;29.70;1.00
4699;DHT22;33708;49.466;11.176;2022-08-05T04:51:36;30.60;1.00
4699;DHT22;33708;49.466;11.176;2022-08-05T04:54:02;30.90;1.00
4699;DHT22;33708;49.466;11.176;2022-08-05T04:56:28;30.60;1.00
4699;DHT22;33708;49.466;11.176;2022-08-05T04:58:53;31.20;1.00
4699;DHT22;33708;49.466;11.176;2022-08-05T05:01:19;32.30;1.00
4699;DHT22;33708;49.466;11.176;2022-08-05T05:03:45;31.30;1.00
4699;DHT22;33708;49.466;11.176;2022-08-05T05:06:11;31.10;1.00
4699;DHT22;33708;49.466;11.176;2022-08-05T05:08:38;32.80;1.00
4699;DHT22;33708;49.466;11.176;2022-08-05T05:11:04;33.80;1.00
4699;DHT22;33708;49.466;11.176;2022-08-05T05:13:30;32.40;1.00
4699;DHT22;33708;49.466;11.176;2022-08-05T05:15:56;32.10;1.00
4699;DHT22;33708;49.466;11.176;2022-08-05T05:18:22;32.30;1.00
4699;DHT22;33708;49.466;11.176;2022-08-05T05:20:48;31.10;1.00
4699;DHT22;33708;49.466;11.176;2022-08-05T05:23:13;30.40;1.00
4699;DHT22;33708;49.466;11.176;2022-08-05T05:25:40;29.70;1.00
4699;DHT22;33708;49.466;11.176;2022-08-05T05:28:06;28.80;1.00
4699;DHT22;33708;49.466;11.176;2022-08-05T05:30:32;29.60;1.00
4699;DHT22;33708;49.466;11.176;2022-08-05T05:32:59;30.20;1.00
4699;DHT22;33708;49.466;11.176;2022-08-05T05:35:25;29.80;1.00
4699;DHT22;33708;49.466;11.176;2022-08-05T05:37:51;29.80;1.00
4699;DHT22;33708;49.466;11.176;2022-08-05T05:40:18;29.10;1.00
4699;DHT22;33708;49.466;11.176;2022-08-05T05:42:45;28.70;1.00
4699;DHT22;33708;49.466;11.176;2022-08-05T05:45:11;28.30;1.00
4699;DHT22;33708;49.466;11.176;2022-08-05T05:47:37;28.10;1.00
4699;DHT22;33708;49.466;11.176;2022-08-05T05:50:04;28.00;1.00
4699;DHT22;33708;49.466;11.176;2022-08-05T05:52:29;27.90;1.00
4699;DHT22;33708;49.466;11.176;2022-08-05T05:55:03;27.90;1.00
4699;DHT22;33708;49.466;11.176;2022-08-05T05:57:29;30.30;1.00
4699;DHT22;33708;49.466;11.176;2022-08-05T05:59:55;33.50;1.00
4699;DHT22;33708;49.466;11.176;2022-08-05T06:02:21;33.30;1.00
4699;DHT22;33708;49.466;11.176;2022-08-05T06:04:46;35.40;1.00
4699;DHT22;33708;49.466;11.176;2022-08-05T06:07:12;37.20;1.00
4699;DHT22;33708;49.466;11.176;2022-08-05T06:09:37;37.50;1.00
4699;DHT22;33708;49.466;11.176;2022-08-05T06:12:04;39.60;1.00
4699;DHT22;33708;49.466;11.176;2022-08-05T06:14:30;41.70;1.00
4699;DHT22;33708;49.466;11.176;2022-08-05T06:16:56;42.60;1.00
4699;DHT22;33708;49.466;11.176;2022-08-05T06:19:22;43.40;1.00
4699;DHT22;33708;49.466;11.176;2022-08-05T06:21:47;43.60;1.00
4699;DHT22;33708;49.466;11.176;2022-08-05T06:24:13;41.20;1.00
4699;DHT22;33708;49.466;11.176;2022-08-05T06:26:40;37.90;1.00
4699;DHT22;33708;49.466;11.176;2022-08-05T06:29:05;35.70;1.00
4699;DHT22;33708;49.466;11.176;2022-08-05T06:31:31;33.40;1.00
4699;DHT22;33708;49.466;11.176;2022-08-05T06:33:57;32.20;1.00
4699;DHT22;33708;49.466;11.176;2022-08-05T06:36:22;30.80;1.00
4699;DHT22;33708;49.466;11.176;2022-08-05T06:38:48;30.10;1.00
4699;DHT22;33708;49.466;11.176;2022-08-05T06:41:18;30.40;1.00
4699;DHT22;33708;49.466;11.176;2022-08-05T06:43:43;30.50;1.00
4699;DHT22;33708;49.466;11.176;2022-08-05T06:46:09;29.40;1.00
4699;DHT22;33708;49.466;11.176;2022-08-05T06:48:34;29.80;1.00
4699;DHT22;33708;49.466;11.176;2022-08-05T06:51:00;29.20;1.00
4699;DHT22;33708;49.466;11.176;2022-08-05T06:53:27;29.30;1.00
4699;DHT22;33708;49.466;11.176;2022-08-05T06:55:53;29.80;1.00
4699;DHT22;33708;49.466;11.176;2022-08-05T06:58:18;30.60;1.00
4699;DHT22;33708;49.466;11.176;2022-08-05T07:00:44;30.80;1.00
4699;DHT22;33708;49.466;11.176;2022-08-05T07:03:09;31.40;1.00
4699;DHT22;33708;49.466;11.176;2022-08-05T07:05:35;31.30;1.00
4699;DHT22;33708;49.466;11.176;2022-08-05T07:08:01;33.10;1.00
4699;DHT22;33708;49.466;11.176;2022-08-05T07:10:26;32.40;1.00
4699;DHT22;33708;49.466;11.176;2022-08-05T07:12:52;34.10;1.00
4699;DHT22;33708;49.466;11.176;2022-08-05T07:15:36;32.60;1.00
4699;DHT22;33708;49.466;11.176;2022-08-05T07:18:20;30.80;1.00
4699;DHT22;33708;49.466;11.176;2022-08-05T07:20:46;31.10;1.00
4699;DHT22;33708;49.466;11.176;2022-08-05T07:23:12;31.70;1.00
4699;DHT22;33708;49.466;11.176;2022-08-05T07:25:38;35.40;1.00
4699;DHT22;33708;49.466;11.176;2022-08-05T07:28:03;37.60;1.00
4699;DHT22;33708;49.466;11.176;2022-08-05T07:30:33;37.50;1.00
4699;DHT22;33708;49.466;11.176;2022-08-05T07:33:01;40.90;1.00
4699;DHT22;33708;49.466;11.176;2022-08-05T07:35:26;38.50;1.00
4699;DHT22;33708;49.466;11.176;2022-08-05T07:37:52;39.30;1.00
4699;DHT22;33708;49.466;11.176;2022-08-05T07:40:18;39.10;1.00
4699;DHT22;33708;49.466;11.176;2022-08-05T07:42:43;39.60;1.00
4699;DHT22;33708;49.466;11.176;2022-08-05T07:45:09;39.10;1.00
4699;DHT22;33708;49.466;11.176;2022-08-05T07:47:35;38.80;1.00
4699;DHT22;33708;49.466;11.176;2022-08-05T07:50:00;41.20;1.00
4699;DHT22;33708;49.466;11.176;2022-08-05T07:52:27;41.10;1.00
4699;DHT22;33708;49.466;11.176;2022-08-05T07:54:52;41.00;99.90
4699;DHT22;33708;49.466;11.176;2022-08-05T07:57:18;43.00;99.90
4699;DHT22;33708;49.466;11.176;2022-08-05T07:59:43;43.90;1.00
4699;DHT22;33708;49.466;11.176;2022-08-05T08:02:09;40.20;1.00
4699;DHT22;33708;49.466;11.176;2022-08-05T08:04:35;42.10;1.00
4699;DHT22;33708;49.466;11.176;2022-08-05T08:07:01;40.80;1.00
4699;DHT22;33708;49.466;11.176;2022-08-05T08:09:27;40.10;1.00
4699;DHT22;33708;49.466;11.176;2022-08-05T08:11:53;39.70;1.00
4699;DHT22;33708;49.466;11.176;2022-08-05T08:14:19;40.10;1.00
4699;DHT22;33708;49.466;11.176;2022-08-05T08:16:45;40.50;1.00
4699;DHT22;33708;49.466;11.176;2022-08-05T08:19:10;41.10;1.00
4699;DHT22;33708;49.466;11.176;2022-08-05T08:21:36;42.40;1.00
4699;DHT22;33708;49.466;11.176;2022-08-05T08:24:02;42.00;1.00
4699;DHT22;33708;49.466;11.176;2022-08-05T08:26:28;42.90;1.00
4699;DHT22;33708;49.466;11.176;2022-08-05T08:28:53;43.80;1.00
4699;DHT22;33708;49.466;11.176;2022-08-05T08:31:19;44.20;1.00
4699;DHT22;33708;49.466;11.176;2022-08-05T08:33:45;44.00;1.00
4699;DHT22;33708;49.466;11.176;2022-08-05T08:36:11;44.70;1.00
4699;DHT22;33708;49.466;11.176;2022-08-05T08:38:37;45.50;1.00
4699;DHT22;33708;49.466;11.176;2022-08-05T08:41:05;44.70;1.00
4699;DHT22;33708;49.466;11.176;2022-08-05T08:43:33;45.20;1.00
4699;DHT22;33708;49.466;11.176;2022-08-05T08:46:01;45.10;1.00
4699;DHT22;33708;49.466;11.176;2022-08-05T08:48:30;44.60;1.00
4699;DHT22;33708;49.466;11.176;2022-08-05T08:50:58;44.70;1.00
4699;DHT22;33708;49.466;11.176;2022-08-05T08:53:26;44.90;1.00
4699;DHT22;33708;49.466;11.176;2022-08-05T08:55:52;44.10;1.00
4699;DHT22;33708;49.466;11.176;2022-08-05T08:58:18;42.40;1.00
4699;DHT22;33708;49.466;11.176;2022-08-05T09:00:44;41.60;1.00
4699;DHT22;33708;49.466;11.176;2022-08-05T09:03:11;41.30;1.00
4699;DHT22;33708;49.466;11.176;2022-08-05T09:05:37;41.70;1.00
4699;DHT22;33708;49.466;11.176;2022-08-05T09:08:03;42.80;1.00
4699;DHT22;33708;49.466;11.176;2022-08-05T09:10:28;43.40;1.00
4699;DHT22;33708;49.466;11.176;2022-08-05T09:12:55;44.00;1.00
4699;DHT22;33708;49.466;11.176;2022-08-05T09:15:21;43.80;1.00
4699;DHT22;33708;49.466;11.176;2022-08-05T09:17:48;43.50;1.00
4699;DHT22;33708;49.466;11.176;2022-08-05T09:20:14;44.20;1.00
4699;DHT22;33708;49.466;11.176;2022-08-05T09:23:11;43.40;1.00
4699;DHT22;33708;49.466;11.176;2022-08-05T09:25:44;40.60;1.00
4699;DHT22;33708;49.466;11.176;2022-08-05T09:28:17;39.20;1.00
4699;DHT22;33708;49.466;11.176;2022-08-05T09:30:59;37.30;1.00
4699;DHT22;33708;49.466;11.176;2022-08-05T09:33:29;36.90;1.00
4699;DHT22;33708;49.466;11.176;2022-08-05T09:36:03;37.50;1.00
4699;DHT22;33708;49.466;11.176;2022-08-05T09:38:30;36.80;1.00
4699;DHT22;33708;49.466;11.176;2022-08-05T09:41:07;36.00;1.00
4699;DHT22;33708;49.466;11.176;2022-08-05T09:43:38;38.00;1.00
4699;DHT22;33708;49.466;11.176;2022-08-05T09:46:05;40.60;1.00
4699;DHT22;33708;49.466;11.176;2022-08-05T09:48:35;39.90;1.00
4699;DHT22;33708;49.466;11.176;2022-08-05T09:51:07;40.20;1.00
4699;DHT22;33708;49.466;11.176;2022-08-05T09:53:47;37.90;1.00
4699;DHT22;33708;49.466;11.176;2022-08-05T09:56:26;37.30;1.00
4699;DHT22;33708;49.466;11.176;2022-08-05T09:59:02;36.20;1.00
4699;DHT22;33708;49.466;11.176;2022-08-05T10:01:28;34.70;1.00
4699;DHT22;33708;49.466;11.176;2022-08-05T10:04:05;34.60;1.00
4699;DHT22;33708;49.466;11.176;2022-08-05T10:06:33;34.10;1.00
4699;DHT22;33708;49.466;11.176;2022-08-05T10:09:13;34.00;1.00
4699;DHT22;33708;49.466;11.176;2022-08-05T10:11:40;34.00;1.00
4699;DHT22;33708;49.466;11.176;2022-08-05T10:14:22;32.90;1.00
4699;DHT22;33708;49.466;11.176;2022-08-05T10:16:49;32.90;1.00
4699;DHT22;33708;49.466;11.176;2022-08-05T10:19:15;32.80;1.00
4699;DHT22;33708;49.466;11.176;2022-08-05T10:21:41;32.70;1.00
4699;DHT22;33708;49.466;11.176;2022-08-05T10:24:08;33.20;1.00
4699;DHT22;33708;49.466;11.176;2022-08-05T10:26:40;33.30;1.00
4699;DHT22;33708;49.466;11.176;2022-08-05T10:29:07;33.40;1.00
4699;DHT22;33708;49.466;11.176;2022-08-05T10:31:33;33.50;1.00
4699;DHT22;33708;49.466;11.176;2022-08-05T10:33:59;33.30;1.00
4699;DHT22;33708;49.466;11.176;2022-08-05T10:36:25;33.30;1.00
4699;DHT22;33708;49.466;11.176;2022-08-05T10:39:01;33.10;1.00
4699;DHT22;33708;49.466;11.176;2022-08-05T10:41:34;33.10;1.00
4699;DHT22;33708;49.466;11.176;2022-08-05T10:44:11;33.40;1.00
4699;DHT22;33708;49.466;11.176;2022-08-05T10:49:10;33.50;1.00
4699;DHT22;33708;49.466;11.176;2022-08-05T10:51:53;33.20;1.00
4699;DHT22;33708;49.466;11.176;2022-08-05T10:54:44;33.50;1.00
4699;DHT22;33708;49.466;11.176;2022-08-05T10:57:11;33.50;1.00
4699;DHT22;33708;49.466;11.176;2022-08-05T10:59:37;33.60;1.00
4699;DHT22;33708;49.466;11.176;2022-08-05T11:02:11;33.80;1.00
4699;DHT22;33708;49.466;11.176;2022-08-05T11:04:44;33.70;1.00
4699;DHT22;33708;49.466;11.176;2022-08-05T11:07:11;33.60;1.00
4699;DHT22;33708;49.466;11.176;2022-08-05T11:09:48;33.60;1.00
4699;DHT22;33708;49.466;11.176;2022-08-05T11:15:15;33.60;1.00
4699;DHT22;33708;49.466;11.176;2022-08-05T11:17:43;34.00;1.00
4699;DHT22;33708;49.466;11.176;2022-08-05T11:20:43;33.70;1.00
4699;DHT22;33708;49.466;11.176;2022-08-05T11:28:45;33.80;1.00
4699;DHT22;33708;49.466;11.176;2022-08-05T11:33:38;33.80;1.00
4699;DHT22;33708;49.466;11.176;2022-08-05T11:36:09;34.10;1.00
4699;DHT22;33708;49.466;11.176;2022-08-05T11:41:22;34.60;1.00
4699;DHT22;33708;49.466;11.176;2022-08-05T11:46:30;35.10;1.00
4699;DHT22;33708;49.466;11.176;2022-08-05T11:48:57;35.30;1.00
4699;DHT22;33708;49.466;11.176;2022-08-05T11:51:24;35.40;1.00
4699;DHT22;33708;49.466;11.176;2022-08-05T11:53:50;35.50;1.00
4699;DHT22;33708;49.466;11.176;2022-08-05T11:56:16;35.30;1.00
4699;DHT22;33708;49.466;11.176;2022-08-05T11:58:44;35.30;1.00
4699;DHT22;33708;49.466;11.176;2022-08-05T12:01:20;34.80;1.00
4699;DHT22;33708;49.466;11.176;2022-08-05T12:06:15;34.30;1.00
4699;DHT22;33708;49.466;11.176;2022-08-05T12:08:46;35.10;1.00
4699;DHT22;33708;49.466;11.176;2022-08-05T12:11:28;35.50;1.00
4699;DHT22;33708;49.466;11.176;2022-08-05T12:13:59;35.80;1.00
4699;DHT22;33708;49.466;11.176;2022-08-05T12:16:27;35.80;1.00
4699;DHT22;33708;49.466;11.176;2022-08-05T12:18:54;36.20;1.00
4699;DHT22;33708;49.466;11.176;2022-08-05T12:21:27;36.70;1.00
4699;DHT22;33708;49.466;11.176;2022-08-05T12:24:04;37.20;1.00
4699;DHT22;33708;49.466;11.176;2022-08-05T12:26:41;37.10;1.00
4699;DHT22;33708;49.466;11.176;2022-08-05T12:29:11;36.80;1.00
4699;DHT22;33708;49.466;11.176;2022-08-05T12:31:38;35.90;1.00
4699;DHT22;33708;49.466;11.176;2022-08-05T12:34:06;35.90;1.00
4699;DHT22;33708;49.466;11.176;2022-08-05T12:36:33;36.20;1.00
4699;DHT22;33708;49.466;11.176;2022-08-05T12:38:59;36.40;1.00
4699;DHT22;33708;49.466;11.176;2022-08-05T12:41:37;35.90;1.00
4699;DHT22;33708;49.466;11.176;2022-08-05T12:44:12;35.10;1.00
4699;DHT22;33708;49.466;11.176;2022-08-05T12:46:39;35.40;1.00
4699;DHT22;33708;49.466;11.176;2022-08-05T12:49:13;35.40;1.00
4699;DHT22;33708;49.466;11.176;2022-08-05T12:51:43;35.80;1.00
4699;DHT22;33708;49.466;11.176;2022-08-05T12:54:09;35.70;1.00
4699;DHT22;33708;49.466;11.176;2022-08-05T12:56:40;35.60;1.00
4699;DHT22;33708;49.466;11.176;2022-08-05T12:59:11;35.40;1.00
4699;DHT22;33708;49.466;11.176;2022-08-05T13:01:42;35.20;1.00
4699;DHT22;33708;49.466;11.176;2022-08-05T13:04:09;35.50;1.00
4699;DHT22;33708;49.466;11.176;2022-08-05T13:06:40;35.30;1.00
4699;DHT22;33708;49.466;11.176;2022-08-05T13:09:08;34.80;1.00
4699;DHT22;33708;49.466;11.176;2022-08-05T13:11:38;35.30;1.00
4699;DHT22;33708;49.466;11.176;2022-08-05T13:14:22;35.00;1.00
4699;DHT22;33708;49.466;11.176;2022-08-05T13:16:56;35.20;1.00
4699;DHT22;33708;49.466;11.176;2022-08-05T13:19:27;35.40;1.00
4699;DHT22;33708;49.466;11.176;2022-08-05T13:21:53;35.70;1.00
4699;DHT22;33708;49.466;11.176;2022-08-05T13:24:21;35.50;1.00
4699;DHT22;33708;49.466;11.176;2022-08-05T13:26:48;35.20;1.00
4699;DHT22;33708;49.466;11.176;2022-08-05T13:29:14;35.20;1.00
4699;DHT22;33708;49.466;11.176;2022-08-05T13:31:40;35.30;1.00
4699;DHT22;33708;49.466;11.176;2022-08-05T13:34:06;35.40;1.00
4699;DHT22;33708;49.466;11.176;2022-08-05T13:36:32;35.40;1.00
4699;DHT22;33708;49.466;11.176;2022-08-05T13:38:59;35.60;1.00
4699;DHT22;33708;49.466;11.176;2022-08-05T13:41:24;35.90;1.00
4699;DHT22;33708;49.466;11.176;2022-08-05T13:43:50;35.80;1.00
4699;DHT22;33708;49.466;11.176;2022-08-05T13:46:16;35.90;1.00
4699;DHT22;33708;49.466;11.176;2022-08-05T13:48:41;35.90;1.00
4699;DHT22;33708;49.466;11.176;2022-08-05T13:51:09;35.70;1.00
4699;DHT22;33708;49.466;11.176;2022-08-05T13:53:34;35.90;1.00
4699;DHT22;33708;49.466;11.176;2022-08-05T13:56:01;35.80;1.00
4699;DHT22;33708;49.466;11.176;2022-08-05T13:58:27;35.90;1.00
4699;DHT22;33708;49.466;11.176;2022-08-05T14:00:53;35.50;1.00
4699;DHT22;33708;49.466;11.176;2022-08-05T14:03:19;35.80;1.00
4699;DHT22;33708;49.466;11.176;2022-08-05T14:05:45;35.40;1.00
4699;DHT22;33708;49.466;11.176;2022-08-05T14:08:11;35.20;1.00
4699;DHT22;33708;49.466;11.176;2022-08-05T14:10:37;35.40;1.00
4699;DHT22;33708;49.466;11.176;2022-08-05T14:13:04;35.10;1.00
4699;DHT22;33708;49.466;11.176;2022-08-05T14:15:33;35.40;1.00
4699;DHT22;33708;49.466;11.176;2022-08-05T14:18:00;35.40;1.00
4699;DHT22;33708;49.466;11.176;2022-08-05T14:20:29;35.10;1.00
4699;DHT22;33708;49.466;11.176;2022-08-05T14:22:56;34.50;1.00
4699;DHT22;33708;49.466;11.176;2022-08-05T14:25:22;34.50;1.00
4699;DHT22;33708;49.466;11.176;2022-08-05T14:27:49;35.20;1.00
4699;DHT22;33708;49.466;11.176;2022-08-05T14:30:17;35.10;1.00
4699;DHT22;33708;49.466;11.176;2022-08-05T14:32:43;35.20;1.00
4699;DHT22;33708;49.466;11.176;2022-08-05T14:35:09;35.30;1.00
4699;DHT22;33708;49.466;11.176;2022-08-05T14:37:37;36.10;1.00
4699;DHT22;33708;49.466;11.176;2022-08-05T14:40:03;35.90;1.00
4699;DHT22;33708;49.466;11.176;2022-08-05T14:42:29;36.10;1.00
4699;DHT22;33708;49.466;11.176;2022-08-05T14:44:55;36.10;1.00
4699;DHT22;33708;49.466;11.176;2022-08-05T14:47:21;36.60;1.00
4699;DHT22;33708;49.466;11.176;2022-08-05T14:49:47;36.10;1.00
4699;DHT22;33708;49.466;11.176;2022-08-05T14:52:13;35.70;1.00
4699;DHT22;33708;49.466;11.176;2022-08-05T14:54:38;35.10;1.00
4699;DHT22;33708;49.466;11.176;2022-08-05T14:57:04;34.90;1.00
4699;DHT22;33708;49.466;11.176;2022-08-05T14:59:30;35.50;1.00
4699;DHT22;33708;49.466;11.176;2022-08-05T15:01:56;36.00;1.00
4699;DHT22;33708;49.466;11.176;2022-08-05T15:04:22;36.40;1.00
4699;DHT22;33708;49.466;11.176;2022-08-05T15:06:49;36.30;1.00
4699;DHT22;33708;49.466;11.176;2022-08-05T15:09:18;35.90;1.00
4699;DHT22;33708;49.466;11.176;2022-08-05T15:11:44;35.50;1.00
4699;DHT22;33708;49.466;11.176;2022-08-05T15:14:10;34.60;1.00
4699;DHT22;33708;49.466;11.176;2022-08-05T15:16:36;34.40;1.00
4699;DHT22;33708;49.466;11.176;2022-08-05T15:19:01;34.50;1.00
4699;DHT22;33708;49.466;11.176;2022-08-05T15:21:27;34.50;1.00
4699;DHT22;33708;49.466;11.176;2022-08-05T15:23:53;34.50;1.00
4699;DHT22;33708;49.466;11.176;2022-08-05T15:26:18;34.20;1.00
4699;DHT22;33708;49.466;11.176;2022-08-05T15:28:44;34.20;1.00
4699;DHT22;33708;49.466;11.176;2022-08-05T15:31:10;34.00;1.00
4699;DHT22;33708;49.466;11.176;2022-08-05T15:33:36;33.90;1.00
4699;DHT22;33708;49.466;11.176;2022-08-05T15:36:03;33.70;1.00
4699;DHT22;33708;49.466;11.176;2022-08-05T15:38:29;34.10;1.00
4699;DHT22;33708;49.466;11.176;2022-08-05T15:40:54;34.20;1.00
4699;DHT22;33708;49.466;11.176;2022-08-05T15:43:20;33.90;1.00
4699;DHT22;33708;49.466;11.176;2022-08-05T15:45:45;34.30;1.00
4699;DHT22;33708;49.466;11.176;2022-08-05T15:48:12;34.00;1.00
4699;DHT22;33708;49.466;11.176;2022-08-05T15:50:38;33.80;1.00
4699;DHT22;33708;49.466;11.176;2022-08-05T15:53:04;33.60;1.00
4699;DHT22;33708;49.466;11.176;2022-08-05T15:55:30;33.40;1.00
4699;DHT22;33708;49.466;11.176;2022-08-05T15:57:55;33.40;1.00
4699;DHT22;33708;49.466;11.176;2022-08-05T16:00:21;33.20;1.00
4699;DHT22;33708;49.466;11.176;2022-08-05T16:02:47;32.60;1.00
4699;DHT22;33708;49.466;11.176;2022-08-05T16:05:13;32.80;1.00
4699;DHT22;33708;49.466;11.176;2022-08-05T16:07:38;32.80;1.00
4699;DHT22;33708;49.466;11.176;2022-08-05T16:10:04;32.50;1.00
4699;DHT22;33708;49.466;11.176;2022-08-05T16:12:31;32.40;1.00
4699;DHT22;33708;49.466;11.176;2022-08-05T16:14:56;32.40;1.00
4699;DHT22;33708;49.466;11.176;2022-08-05T16:17:22;32.30;1.00
4699;DHT22;33708;49.466;11.176;2022-08-05T16:19:48;31.90;1.00